Time;durP1;ratioP1;P1;durP2;ratioP2;P2;SDS_P1;SDS_P2;PMS_P1;PMS_P2;Temp;Humidity;BMP_temperature;BMP_pressure;BME280_temperature;BME280_humidity;BME280_pressure;Samples;Min_cycle;Max_cycle;Signal;HPM_P1;HPM_P2
2022/04/16 00:01:04;;;;;;;13.10;11.35;;;;;;;13.85;55.26;99868.61;1677141;84;21011;-72
2022/04/16 00:03:33;;;;;;;12.47;11.18;;;;;;;13.80;55.33;99857.20;1677472;84;21081;-71
2022/04/16 00:06:01;;;;;;;11.50;10.40;;;;;;;13.76;55.43;99852.80;1681884;84;21082;-71
2022/04/16 00:08:30;;;;;;;10.75;8.60;;;;;;;13.76;55.38;99854.67;1682295;85;21641;-72
2022/04/16 00:10:57;;;;;;;10.23;9.30;;;;;;;13.73;55.49;99865.31;1682223;84;21095;-72
2022/04/16 00:13:25;;;;;;;11.93;9.83;;;;;;;13.71;55.44;99872.75;1680899;84;21070;-72
2022/04/16 00:15:55;;;;;;;10.63;8.83;;;;;;;13.70;55.29;99876.45;1681025;84;21527;-71
2022/04/16 00:18:25;;;;;;;9.58;8.60;;;;;;;13.69;55.37;99877.48;1673087;84;21063;-72
2022/04/16 00:20:51;;;;;;;10.25;8.35;;;;;;;13.66;55.35;99879.80;1675755;84;21087;-70
2022/04/16 00:23:20;;;;;;;9.23;7.78;;;;;;;13.60;55.39;99880.98;1681653;84;21079;-70
2022/04/16 00:25:49;;;;;;;11.05;8.50;;;;;;;13.53;55.28;99882.08;1681053;84;21054;-70
2022/04/16 00:28:16;;;;;;;9.33;7.50;;;;;;;13.48;55.33;99890.74;1673262;84;21094;-72
2022/04/16 00:30:42;;;;;;;;;;;;;;;13.41;55.46;99894.83;1683517;84;21093;-70
2022/04/16 00:33:15;;;;;;;9.60;8.15;;;;;;;13.35;55.66;99898.88;1681155;83;20164;-72
2022/04/16 00:35:42;;;;;;;10.65;8.40;;;;;;;13.23;56.25;99910.25;1680691;84;21102;-71
2022/04/16 00:38:09;;;;;;;13.15;8.93;;;;;;;13.15;56.61;99894.99;1681126;84;21624;-71
2022/04/16 00:40:35;;;;;;;11.05;8.90;;;;;;;13.10;57.03;99895.63;1681104;84;21534;-72
2022/04/16 00:43:02;;;;;;;9.73;8.73;;;;;;;13.06;57.10;99893.08;1680679;84;21154;-72
2022/04/16 00:45:30;;;;;;;10.98;8.15;;;;;;;13.04;57.44;99889.28;1681871;84;21041;-72
2022/04/16 00:47:58;;;;;;;9.70;7.47;;;;;;;13.03;57.65;99890.33;1680925;84;21029;-72
2022/04/16 00:50:26;;;;;;;11.00;8.63;;;;;;;13.02;58.00;99877.97;1681679;84;21068;-70
2022/04/16 00:52:54;;;;;;;11.67;9.60;;;;;;;12.97;58.48;99881.80;1681867;85;21544;-72
2022/04/16 00:55:22;;;;;;;8.90;8.08;;;;;;;12.94;58.53;99892.95;1677901;84;21038;-72
2022/04/16 00:57:49;;;;;;;10.35;9.25;;;;;;;12.94;59.11;99910.34;1668010;84;21539;-72
2022/04/16 01:00:16;;;;;;;12.53;10.55;;;;;;;12.90;59.48;99905.62;1676312;84;21604;-70
2022/04/16 01:02:42;;;;;;;11.65;10.45;;;;;;;12.83;60.61;99892.30;1686056;83;21074;-71
2022/04/16 01:05:12;;;;;;;12.65;11.35;;;;;;;12.77;61.13;99895.80;1679720;83;21118;-70
2022/04/16 01:07:58;;;;;;;14.10;11.63;;;;;;;12.71;61.08;99884.63;1693272;83;21118;-71
2022/04/16 01:10:29;;;;;;;13.20;11.90;;;;;;;12.65;61.26;99872.41;1676852;83;21574;-71
2022/04/16 01:12:58;;;;;;;12.15;10.95;;;;;;;12.60;61.53;99879.42;1692980;82;21194;-69
2022/04/16 01:15:25;;;;;;;13.67;11.00;;;;;;;12.58;61.88;99892.19;1693753;83;21093;-71
2022/04/16 01:17:53;;;;;;;11.87;10.13;;;;;;;12.57;61.74;99909.28;1680535;83;21197;-72
2022/04/16 01:20:20;;;;;;;11.47;10.23;;;;;;;12.56;62.03;99900.41;1689881;83;21150;-71
2022/04/16 01:22:50;;;;;;;12.33;11.03;;;;;;;12.53;62.05;99911.55;1693692;83;21568;-72
2022/04/16 01:25:19;;;;;;;12.82;11.33;;;;;;;12.53;62.13;99908.87;1693686;83;21073;-70
2022/04/16 01:27:46;;;;;;;12.78;10.55;;;;;;;12.51;62.19;99906.94;1694214;83;21109;-72
2022/04/16 01:30:18;;;;;;;11.90;10.58;;;;;;;12.51;62.42;99889.56;1675089;83;21471;-70
2022/04/16 01:32:44;;;;;;;11.43;9.93;;;;;;;12.36;62.64;99843.57;1680142;83;21039;-70
2022/04/16 01:35:12;;;;;;;12.05;10.85;;;;;;;12.53;62.71;99872.79;1694209;83;21150;-71
2022/04/16 01:37:41;;;;;;;12.78;10.25;;;;;;;12.52;62.81;99839.58;1694339;84;20994;-71
2022/04/16 01:40:12;;;;;;;12.77;11.03;;;;;;;12.47;63.15;99870.97;1693930;83;21108;-70
2022/04/16 01:42:43;;;;;;;13.83;12.27;;;;;;;12.42;63.33;99893.50;1693146;83;21099;-71
2022/04/16 01:45:11;;;;;;;13.55;11.65;;;;;;;12.39;63.49;99899.25;1693642;82;21062;-71
2022/04/16 01:47:39;;;;;;;13.95;11.65;;;;;;;12.35;63.79;99902.86;1692780;83;21587;-72
2022/04/16 01:50:11;;;;;;;15.00;13.47;;;;;;;12.31;64.44;99898.97;1677045;83;21043;-71
2022/04/16 01:52:41;;;;;;;15.75;12.85;;;;;;;12.25;65.01;99902.49;1694354;84;21082;-71
2022/04/16 01:55:08;;;;;;;15.23;13.17;;;;;;;12.18;64.99;99902.50;1692867;83;20990;-72
2022/04/16 01:57:35;;;;;;;13.68;12.37;;;;;;;12.18;65.34;99899.83;1683239;83;21407;-72
2022/04/16 02:00:07;;;;;;;16.63;13.37;;;;;;;12.15;65.43;99887.39;1688444;83;21128;-72
2022/04/16 02:02:36;;;;;;;15.27;12.23;;;;;;;12.23;65.59;99893.34;1694112;83;21022;-71
2022/04/16 02:05:05;;;;;;;15.43;12.93;;;;;;;12.22;65.90;99887.71;1694219;83;21343;-71
2022/04/16 02:07:33;;;;;;;15.98;13.40;;;;;;;12.20;66.14;99898.28;1679186;85;21170;-72
2022/04/16 02:10:00;;;;;;;16.90;15.03;;;;;;;12.17;66.45;99900.88;1692279;83;21004;-72
2022/04/16 02:12:28;;;;;;;15.08;13.15;;;;;;;12.14;66.68;99894.59;1682012;83;21081;-71
2022/04/16 02:14:54;;;;;;;19.15;14.35;;;;;;;12.11;66.96;99900.38;1673059;83;21051;-71
2022/04/16 02:17:20;;;;;;;;;;;;;;;12.08;67.46;99898.93;1696882;85;21019;-72
2022/04/16 02:19:49;;;;;;;15.58;13.25;;;;;;;12.05;67.44;99908.71;1678474;83;20444;-68
2022/04/16 02:22:17;;;;;;;17.52;13.13;;;;;;;12.02;67.49;99913.65;1676719;83;22244;-71
2022/04/16 02:24:46;;;;;;;16.55;13.60;;;;;;;12.04;67.75;99914.27;1711019;83;21075;-71
2022/04/16 02:27:11;;;;;;;16.80;14.93;;;;;;;12.05;67.82;99927.41;1700258;82;21123;-71
2022/04/16 02:29:39;;;;;;;15.48;13.72;;;;;;;12.03;67.97;99929.44;1705573;83;21566;-71
2022/04/16 02:32:08;;;;;;;15.13;13.53;;;;;;;12.02;68.26;99928.34;1701679;82;21115;-70
2022/04/16 02:34:35;;;;;;;17.33;14.53;;;;;;;11.99;68.16;99922.88;1707194;83;21192;-72
2022/04/16 02:37:02;;;;;;;15.47;13.77;;;;;;;11.96;68.19;99921.98;1699239;83;21101;-72
2022/04/16 02:39:28;;;;;;;13.83;12.43;;;;;;;11.95;68.20;99915.50;1692962;83;21099;-70
2022/04/16 02:41:54;;;;;;;16.87;13.00;;;;;;;11.96;68.09;99919.80;1691646;83;21576;-72
2022/04/16 02:47:05;;;;;;;14.03;12.40;;;;;;;12.06;67.78;99925.55;1646246;84;21601;-71
2022/04/16 02:49:34;;;;;;;15.70;12.28;;;;;;;12.05;67.69;99926.08;1668656;84;21123;-72
2022/04/16 02:52:00;;;;;;;14.30;12.37;;;;;;;12.04;67.63;99916.93;1670524;84;21045;-72
2022/04/16 02:54:28;;;;;;;13.03;11.50;;;;;;;12.05;67.56;99911.88;1671261;84;21133;-70
2022/04/16 02:56:58;;;;;;;14.50;13.10;;;;;;;12.03;67.68;99899.25;1696297;84;21022;-70
2022/04/16 02:59:25;;;;;;;15.95;12.82;;;;;;;11.99;67.78;99914.05;1706510;82;21107;-70
2022/04/16 03:01:51;;;;;;;16.70;13.38;;;;;;;11.93;68.62;99930.91;1692401;82;21125;-71
2022/04/16 03:04:17;;;;;;;12.00;10.85;;;;;;;11.84;68.42;99943.62;1703280;82;21074;-71
2022/04/16 03:06:44;;;;;;;13.70;12.28;;;;;;;11.80;68.51;99949.06;1708406;82;21037;-72
2022/04/16 03:09:11;;;;;;;15.18;13.58;;;;;;;11.84;68.55;99942.28;1687907;82;21095;-71
2022/04/16 03:11:37;;;;;;;;;;;;;;;11.85;68.54;99942.08;1710523;82;21005;-71
2022/04/16 03:17:31;;;;;;;14.93;13.37;;;;;;;11.87;68.76;99941.36;1707421;82;20133;-69
2022/04/16 03:19:15;;;;;;;16.17;14.50;;;;;;;11.79;68.87;99943.41;1601739;87;21108;-71
2022/04/16 03:21:42;;;;;;;16.20;14.50;;;;;;;11.78;68.89;99951.12;1668779;82;21065;-71
2022/04/16 03:24:08;;;;;;;16.40;14.78;;;;;;;11.75;68.96;99945.66;1707281;84;21113;-71
2022/04/16 03:26:35;;;;;;;16.27;14.17;;;;;;;11.73;69.12;99942.38;1707264;82;22273;-70
2022/04/16 03:29:02;;;;;;;16.60;14.68;;;;;;;11.71;69.42;99945.77;1680442;82;21083;-71
2022/04/16 03:31:29;;;;;;;17.77;14.17;;;;;;;11.72;69.38;99947.95;1695441;82;21030;-71
2022/04/16 03:33:55;;;;;;;20.17;15.48;;;;;;;11.72;69.60;99950.09;1687443;82;21064;-70
2022/04/16 03:36:23;;;;;;;17.17;15.37;;;;;;;11.60;70.90;99941.89;1695793;82;21153;-71
2022/04/16 03:38:49;;;;;;;;;;;;;;;11.49;71.01;99946.50;1702195;82;21046;-71
2022/04/16 03:41:15;;;;;;;15.33;13.80;;;;;;;11.40;71.22;99951.72;1707269;82;20165;-71
2022/04/16 03:43:41;;;;;;;16.65;13.85;;;;;;;11.33;71.51;99958.36;1708488;84;22380;-71
2022/04/16 03:46:09;;;;;;;15.53;13.93;;;;;;;11.34;71.55;99961.36;1707492;82;21069;-72
2022/04/16 03:48:35;;;;;;;18.52;15.55;;;;;;;11.39;71.52;99964.22;1707102;82;21543;-71
2022/04/16 03:51:01;;;;;;;;;;;;;;;11.45;71.35;99967.43;1709959;82;22174;-71
2022/04/16 03:53:29;;;;;;;16.82;15.10;;;;;;;11.47;71.27;99971.20;1702262;82;20145;-71
2022/04/16 04:01:26;;;;;;;17.87;16.07;;;;;;;11.44;71.70;99967.11;1698965;82;21525;-71
2022/04/16 04:03:52;;;;;;;20.10;15.85;;;;;;;11.43;71.61;99960.14;1687455;82;21561;-70
2022/04/16 04:06:18;;;;;;;17.62;15.83;;;;;;;11.48;71.54;99967.52;1708106;82;21148;-71
2022/04/16 04:08:46;;;;;;;15.67;14.07;;;;;;;11.50;71.44;99966.28;1707346;82;21121;-71
2022/04/16 04:11:12;;;;;;;17.95;15.70;;;;;;;11.54;71.50;99968.56;1708445;83;21042;-71
2022/04/16 04:13:39;;;;;;;;;;;;;;;11.54;71.61;99969.38;1690430;82;21094;-73
2022/04/16 04:16:05;;;;;;;19.20;15.73;;;;;;;11.55;71.66;99971.55;1708615;83;20125;-70
2022/04/16 04:18:32;;;;;;;19.23;16.90;;;;;;;11.53;71.71;99968.23;1707720;82;21136;-72
2022/04/16 04:20:58;;;;;;;17.65;15.80;;;;;;;11.58;71.54;99969.79;1708726;83;21161;-71
2022/04/16 04:23:24;;;;;;;17.17;15.27;;;;;;;11.65;71.25;99970.63;1708430;82;21185;-72
2022/04/16 04:25:51;;;;;;;16.17;14.68;;;;;;;11.73;71.00;99965.08;1708517;82;21021;-70
2022/04/16 04:28:18;;;;;;;17.60;15.35;;;;;;;11.82;70.74;99971.04;1693409;82;21104;-70
2022/04/16 04:30:44;;;;;;;19.07;16.82;;;;;;;11.84;70.63;99964.98;1700959;82;21195;-72
2022/04/16 04:33:11;;;;;;;19.35;15.78;;;;;;;11.82;70.47;99973.19;1685529;82;21183;-71
2022/04/16 04:35:38;;;;;;;15.95;14.35;;;;;;;11.81;70.55;99973.39;1707102;82;21088;-70
2022/04/16 04:38:05;;;;;;;17.48;15.72;;;;;;;11.83;70.52;99970.03;1705783;82;21101;-71
2022/04/16 04:40:32;;;;;;;17.97;14.60;;;;;;;11.80;70.54;99972.58;1699931;82;21687;-71
2022/04/16 04:42:59;;;;;;;17.05;15.25;;;;;;;11.78;70.46;99968.48;1696355;82;21066;-71
2022/04/16 04:45:27;;;;;;;16.43;14.87;;;;;;;11.75;70.72;99972.88;1708686;82;21469;-71
2022/04/16 04:47:58;;;;;;;18.83;14.60;;;;;;;11.74;70.55;99973.41;1707806;82;21100;-71
2022/04/16 04:51:41;;;;;;;16.93;15.40;;;;;;;11.84;70.61;99965.80;1800121;79;22775;-71
2022/04/16 04:54:09;;;;;;;16.85;15.15;;;;;;;11.89;70.39;99970.53;1760360;80;21053;-70
2022/04/16 04:56:36;;;;;;;18.47;15.30;;;;;;;11.94;70.42;99969.45;1719231;80;21109;-71
2022/04/16 04:59:03;;;;;;;24.70;17.25;;;;;;;12.00;70.24;99975.81;1698123;84;21033;-70
2022/04/16 05:01:29;;;;;;;18.30;14.87;;;;;;;12.02;69.91;99962.55;1684438;84;21093;-71
2022/04/16 05:03:57;;;;;;;17.83;15.87;;;;;;;12.06;69.73;99961.62;1684447;84;21065;-71
2022/04/16 05:06:23;;;;;;;14.55;13.28;;;;;;;12.13;69.64;99966.45;1684077;84;21102;-71
2022/04/16 05:08:51;;;;;;;17.00;14.98;;;;;;;12.24;69.40;99955.62;1683700;84;21005;-70
2022/04/16 05:11:17;;;;;;;;;;;;;;;12.33;69.10;99962.38;1686437;83;21443;-71
2022/04/16 05:13:43;;;;;;;17.57;15.53;;;;;;;12.46;68.62;99958.86;1683505;83;20451;-71
2022/04/16 05:16:12;;;;;;;16.10;14.30;;;;;;;12.58;68.17;99957.20;1718750;83;21490;-71
2022/04/16 05:18:41;;;;;;;15.48;13.98;;;;;;;12.79;67.94;99953.41;1684336;83;21566;-72
2022/04/16 05:21:08;;;;;;;15.80;14.20;;;;;;;13.18;66.34;99947.53;1684126;83;21124;-73
2022/04/16 05:23:39;;;;;;;17.77;15.83;;;;;;;13.59;64.87;99946.80;1693074;82;21318;-72
2022/04/16 05:26:10;;;;;;;16.23;14.68;;;;;;;13.86;62.98;99944.71;1712127;83;21426;-71
2022/04/16 05:28:38;;;;;;;16.50;15.03;;;;;;;13.83;63.13;99942.48;1698682;83;21104;-73
2022/04/16 05:31:06;;;;;;;18.52;14.35;;;;;;;13.87;62.97;99946.89;1699098;83;21045;-74
2022/04/16 05:36:19;;;;;;;14.05;12.75;;;;;;;13.96;61.96;99954.95;1703887;83;21056;-72
2022/04/16 05:38:46;;;;;;;19.77;16.42;;;;;;;13.91;62.25;99949.42;1703094;82;21029;-75
2022/04/16 05:41:12;;;;;;;;;;;;;;;13.85;62.54;99948.97;1703866;83;21019;-72
2022/04/16 05:43:38;;;;;;;15.75;14.25;;;;;;;13.88;62.72;99955.21;1705222;83;20148;-72
2022/04/16 05:46:05;;;;;;;15.05;13.65;;;;;;;13.89;62.49;99955.53;1689638;82;21006;-73
2022/04/16 05:48:31;;;;;;;16.37;14.73;;;;;;;13.97;62.37;99960.59;1690905;83;21343;-72
2022/04/16 05:50:59;;;;;;;14.98;13.48;;;;;;;14.02;62.02;99952.73;1686141;83;21157;-72
2022/04/16 05:53:26;;;;;;;14.25;12.88;;;;;;;14.17;61.52;99950.52;1681834;84;21074;-73
2022/04/16 05:55:53;;;;;;;15.10;13.60;;;;;;;14.44;61.07;99947.55;1686537;84;21157;-71
2022/04/16 05:58:19;;;;;;;14.95;13.65;;;;;;;14.89;59.69;99953.16;1684254;84;21146;-73
2022/04/16 06:00:46;;;;;;;14.30;12.93;;;;;;;15.35;58.54;99955.20;1679982;84;21592;-73
2022/04/16 06:03:13;;;;;;;14.78;13.28;;;;;;;15.54;57.43;99953.80;1684517;84;21118;-72
2022/04/16 06:05:40;;;;;;;14.85;13.43;;;;;;;15.81;56.58;99957.44;1680290;84;21865;-74
2022/04/16 06:08:07;;;;;;;15.85;14.33;;;;;;;16.07;55.76;99958.32;1682774;84;21046;-73
2022/04/16 06:10:37;;;;;;;17.07;14.23;;;;;;;16.15;55.13;99949.89;1682843;84;21085;-73
2022/04/16 06:13:05;;;;;;;16.10;14.53;;;;;;;16.13;54.70;99954.69;1686734;82;21507;-73
2022/04/16 06:15:32;;;;;;;20.77;18.48;;;;;;;15.89;55.24;99958.42;1683575;83;21040;-74
2022/04/16 06:17:59;;;;;;;18.07;16.27;;;;;;;15.70;55.67;99956.33;1682995;83;21194;-71
2022/04/16 06:20:27;;;;;;;17.60;15.75;;;;;;;15.54;56.01;99961.86;1653170;85;21371;-73
2022/04/16 06:22:53;;;;;;;16.32;14.63;;;;;;;15.29;56.59;99966.03;1669141;85;21538;-72
2022/04/16 06:25:20;;;;;;;16.67;14.98;;;;;;;15.02;57.39;99964.24;1714143;82;21047;-72
2022/04/16 06:27:48;;;;;;;19.95;16.40;;;;;;;14.82;58.65;99967.98;1707292;82;21137;-73
2022/04/16 06:30:15;;;;;;;20.30;16.10;;;;;;;14.73;58.60;99972.01;1703998;82;21075;-73
2022/04/16 06:32:41;;;;;;;18.02;16.17;;;;;;;14.52;59.14;99967.39;1706067;82;21089;-73
2022/04/16 06:35:08;;;;;;;17.70;15.80;;;;;;;14.37;60.02;99970.44;1716311;82;21057;-72
2022/04/16 06:37:35;;;;;;;19.73;17.40;;;;;;;14.43;60.52;99970.06;1705125;82;21062;-73
2022/04/16 06:40:06;;;;;;;16.55;14.93;;;;;;;14.53;59.61;99969.01;1717554;82;21061;-72
2022/04/16 06:42:32;;;;;;;19.45;17.30;;;;;;;14.55;59.45;99973.62;1716346;82;21619;-72
2022/04/16 06:44:59;;;;;;;18.73;17.02;;;;;;;14.53;59.39;99966.33;1699113;82;21730;-73
2022/04/16 06:47:25;;;;;;;18.37;16.70;;;;;;;14.46;59.42;99966.11;1673191;84;21084;-73
2022/04/16 06:49:53;;;;;;;18.17;16.37;;;;;;;14.32;59.61;99966.77;1673097;84;21096;-73
2022/04/16 06:52:19;;;;;;;18.92;17.15;;;;;;;14.07;60.00;99974.83;1666473;85;21421;-72
2022/04/16 06:54:47;;;;;;;16.40;14.85;;;;;;;13.80;60.83;99978.55;1674430;85;21093;-74
2022/04/16 06:57:14;;;;;;;16.42;14.85;;;;;;;13.65;61.61;99979.92;1678960;84;21030;-72
2022/04/16 06:59:42;;;;;;;18.57;16.93;;;;;;;13.47;62.32;99977.97;1684979;84;21085;-73
2022/04/16 07:02:10;;;;;;;17.55;15.90;;;;;;;13.19;62.93;99984.51;1716238;82;21053;-71
2022/04/16 07:04:37;;;;;;;21.70;16.35;;;;;;;13.02;64.34;99989.53;1719682;82;21149;-74
2022/04/16 07:07:05;;;;;;;15.28;13.88;;;;;;;12.91;64.51;99989.67;1719262;82;21061;-73
2022/04/16 07:09:31;;;;;;;17.75;14.38;;;;;;;12.86;65.40;99993.48;1700388;82;21100;-70
2022/04/16 07:11:57;;;;;;;14.38;13.15;;;;;;;12.80;65.82;99990.33;1720266;82;21025;-71
2022/04/16 07:14:23;;;;;;;15.35;13.78;;;;;;;12.71;66.53;99994.27;1719801;82;21065;-72
2022/04/16 07:16:49;;;;;;;15.43;14.03;;;;;;;12.61;67.05;99992.03;1719397;82;21597;-72
2022/04/16 07:19:16;;;;;;;16.42;14.87;;;;;;;12.48;67.59;99998.23;1720130;82;21189;-72
2022/04/16 07:21:42;;;;;;;16.65;14.98;;;;;;;12.38;68.08;99989.84;1720540;82;21592;-74
2022/04/16 07:24:09;;;;;;;15.88;14.33;;;;;;;12.37;68.12;99992.19;1679256;82;21589;-74
2022/04/16 07:26:35;;;;;;;15.60;14.23;;;;;;;12.47;68.36;99989.92;1672623;84;21085;-73
2022/04/16 07:29:01;;;;;;;15.45;14.00;;;;;;;12.71;67.48;99992.41;1672102;84;21124;-72
2022/04/16 07:31:27;;;;;;;16.32;14.85;;;;;;;12.89;66.52;99989.06;1673367;84;21163;-73
2022/04/16 07:33:55;;;;;;;16.48;14.95;;;;;;;13.07;65.81;99991.55;1681965;84;21068;-72
2022/04/16 07:36:22;;;;;;;16.37;14.70;;;;;;;13.23;64.89;99990.55;1698708;83;21563;-73
2022/04/16 07:38:48;;;;;;;;;;;;;;;13.33;63.87;99990.10;1701821;83;21073;-72
2022/04/16 07:41:14;;;;;;;18.52;16.07;;;;;;;13.33;64.11;99995.45;1698990;83;20808;-74
2022/04/16 07:43:42;;;;;;;18.05;16.37;;;;;;;13.31;63.49;100002.88;1699653;84;21186;-72
2022/04/16 07:46:09;;;;;;;18.40;16.50;;;;;;;13.22;63.46;99998.28;1719996;82;21014;-73
2022/04/16 07:48:37;;;;;;;15.85;14.30;;;;;;;13.20;63.60;100004.86;1721481;82;21106;-73
2022/04/16 07:51:05;;;;;;;15.00;13.62;;;;;;;13.23;63.75;99989.20;1722127;82;21079;-73
2022/04/16 07:53:31;;;;;;;16.37;14.90;;;;;;;13.46;62.66;99997.23;1722453;82;21061;-74
2022/04/16 07:55:59;;;;;;;15.80;13.88;;;;;;;13.52;62.31;100003.59;1721615;81;21074;-73
2022/04/16 07:58:25;;;;;;;15.50;13.98;;;;;;;13.52;62.07;99991.02;1722052;82;21118;-72
2022/04/16 08:00:51;;;;;;;15.58;14.10;;;;;;;13.56;61.87;99998.94;1722315;82;20997;-73
2022/04/16 08:03:18;;;;;;;14.85;13.40;;;;;;;13.57;61.85;100004.58;1722696;82;21080;-77
2022/04/16 08:05:45;;;;;;;15.50;13.90;;;;;;;13.57;62.15;100003.77;1722561;82;21057;-71
2022/04/16 08:08:12;;;;;;;12.70;11.50;;;;;;;13.55;61.89;100004.51;1720798;82;21068;-76
2022/04/16 08:10:40;;;;;;;13.62;12.43;;;;;;;13.53;61.97;100003.91;1721790;82;21155;-74
2022/04/16 08:13:07;;;;;;;13.83;12.37;;;;;;;13.49;61.60;100006.19;1722188;82;21367;-74
2022/04/16 08:15:35;;;;;;;13.40;12.10;;;;;;;13.41;61.62;100003.75;1722393;82;21062;-74
2022/04/16 08:18:04;;;;;;;14.58;13.08;;;;;;;13.34;61.76;100014.51;1721407;82;21078;-72
2022/04/16 08:20:30;;;;;;;13.75;12.55;;;;;;;13.28;61.96;100007.31;1722652;82;21101;-73
2022/04/16 08:22:59;;;;;;;14.07;12.68;;;;;;;13.23;62.33;100003.92;1721634;82;21387;-72
2022/04/16 08:25:47;;;;;;;13.35;12.13;;;;;;;13.21;62.25;100006.52;1722286;82;21585;-71
2022/04/16 08:27:55;;;;;;;15.10;13.70;;;;;;;13.20;62.49;100016.41;1715095;82;21651;-72
2022/04/16 08:30:22;;;;;;;12.80;11.60;;;;;;;13.16;61.94;100017.84;1720874;82;21553;-72
2022/04/16 08:32:49;;;;;;;10.95;10.00;;;;;;;13.16;62.16;100010.34;1722424;82;21530;-74
2022/04/16 08:35:18;;;;;;;13.48;12.15;;;;;;;13.27;62.13;100013.69;1721338;82;21031;-74
2022/04/16 08:37:48;;;;;;;14.33;12.23;;;;;;;13.41;61.24;100008.61;1721108;82;21031;-70
2022/04/16 08:40:15;;;;;;;11.38;10.18;;;;;;;13.54;60.55;100008.20;1720914;82;21080;-75
2022/04/16 08:42:45;;;;;;;12.85;10.82;;;;;;;13.68;60.06;100006.28;1722325;82;21084;-73
2022/04/16 08:45:13;;;;;;;11.60;10.45;;;;;;;13.80;59.40;100001.32;1706759;81;21112;-74
2022/04/16 08:47:42;;;;;;;11.60;10.58;;;;;;;13.96;58.68;100006.67;1690243;83;21118;-72
2022/04/16 08:50:11;;;;;;;10.45;9.50;;;;;;;14.12;58.12;100001.27;1691462;83;21060;-72
2022/04/16 08:52:39;;;;;;;11.10;10.10;;;;;;;14.31;56.92;99990.59;1691651;83;22036;-73
2022/04/16 08:55:09;;;;;;;11.20;10.18;;;;;;;14.46;55.88;99994.27;1690195;83;21073;-73
2022/04/16 08:57:38;;;;;;;11.78;10.63;;;;;;;14.54;55.35;99997.98;1673937;84;21505;-73
2022/04/16 09:00:08;;;;;;;11.60;10.28;;;;;;;14.59;55.64;99984.23;1671655;84;21062;-71
2022/04/16 09:02:36;;;;;;;11.88;10.82;;;;;;;14.77;54.95;99992.00;1692254;83;21068;-71
2022/04/16 09:05:07;;;;;;;11.60;10.45;;;;;;;14.90;54.63;99989.16;1692624;83;21089;-73
2022/04/16 09:07:49;;;;;;;12.05;10.93;;;;;;;14.98;54.13;99991.52;1708038;83;21104;-71
2022/04/16 09:10:17;;;;;;;11.30;10.30;;;;;;;14.98;53.86;99991.52;1701414;83;21064;-73
2022/04/16 09:12:52;;;;;;;11.60;10.48;;;;;;;14.90;53.95;100001.73;1706821;82;21145;-73
2022/04/16 09:15:21;;;;;;;11.55;8.85;;;;;;;14.81;54.03;100007.13;1692208;83;21068;-71
2022/04/16 09:18:00;;;;;;;6.22;5.62;;;;;;;14.59;55.75;100012.39;1692939;83;21098;-71
2022/04/16 09:20:39;;;;;;;5.10;4.47;;;;;;;14.13;58.61;100023.55;1713857;83;21073;-73
2022/04/16 09:23:22;;;;;;;3.62;3.33;;;;;;;13.60;60.62;100036.30;1690956;83;21057;-73
2022/04/16 09:25:50;;;;;;;2.83;2.62;;;;;;;12.92;64.05;100047.50;1693310;83;21093;-71
2022/04/16 09:28:21;;;;;;;3.60;2.80;;;;;;;12.11;67.24;100049.99;1693084;83;21989;-72
2022/04/16 09:30:54;;;;;;;2.50;2.40;;;;;;;11.59;68.82;100055.53;1693235;83;21160;-71
2022/04/16 09:33:22;;;;;;;3.20;2.67;;;;;;;11.28;70.35;100051.52;1692383;83;21148;-71
2022/04/16 09:35:55;;;;;;;2.87;2.63;;;;;;;11.06;70.97;100079.66;1692652;83;21149;-71
2022/04/16 09:38:24;;;;;;;3.07;2.87;;;;;;;10.85;72.17;100079.73;1693288;83;21105;-70
2022/04/16 09:40:51;;;;;;;3.23;2.50;;;;;;;10.65;73.02;100085.77;1692306;83;22099;-71
2022/04/16 09:43:18;;;;;;;2.30;2.00;;;;;;;10.45;74.00;100092.31;1693058;83;21165;-70
2022/04/16 09:45:44;;;;;;;2.63;2.43;;;;;;;10.26;74.96;100100.41;1692593;82;21060;-72
2022/04/16 09:48:13;;;;;;;;;;;;;;;10.15;75.44;100094.27;1696425;83;21108;-72
2022/04/16 09:50:42;;;;;;;2.07;1.90;;;;;;;10.08;75.36;100120.03;1693715;83;20143;-70
2022/04/16 09:53:11;;;;;;;3.80;2.37;;;;;;;9.81;76.45;100118.41;1693409;83;21510;-70
2022/04/16 09:55:41;;;;;;;2.63;2.40;;;;;;;9.58;76.96;100132.39;1692428;83;21096;-73
2022/04/16 09:58:07;;;;;;;4.03;1.53;;;;;;;9.40;77.03;100145.59;1692658;83;21035;-71
2022/04/16 10:00:37;;;;;;;2.33;1.50;;;;;;;9.21;77.70;100137.67;1693381;83;21051;-71
2022/04/16 10:03:09;;;;;;;5.03;1.60;;;;;;;9.04;77.75;100146.34;1692654;83;21072;-70
2022/04/16 10:05:35;;;;;;;0.97;0.90;;;;;;;8.93;77.88;100162.75;1692537;83;21333;-70
2022/04/16 10:08:03;;;;;;;1.30;0.70;;;;;;;8.85;77.95;100171.59;1692491;83;21056;-72
2022/04/16 10:13:07;;;;;;;1.27;1.10;;;;;;;8.77;76.72;100167.19;1714270;81;21024;-71
2022/04/16 10:15:53;;;;;;;1.27;1.13;;;;;;;8.68;76.75;100176.27;1692882;83;21131;-70
2022/04/16 10:18:19;;;;;;;1.10;0.90;;;;;;;8.64;76.47;100180.27;1693391;83;21121;-71
2022/04/16 10:20:59;;;;;;;3.53;0.43;;;;;;;8.63;76.35;100185.78;1717964;83;21032;-73
2022/04/16 10:23:40;;;;;;;0.50;0.43;;;;;;;8.66;75.93;100188.88;1687891;84;21047;-72
2022/04/16 10:26:12;;;;;;;1.97;0.40;;;;;;;8.69;75.15;100192.52;1689365;83;21005;-73
2022/04/16 10:28:53;;;;;;;0.77;0.20;;;;;;;8.69;74.43;100195.17;1692214;83;21746;-72
2022/04/16 10:31:28;;;;;;;0.80;0.50;;;;;;;8.67;74.50;100188.41;1686430;83;21105;-71
2022/04/16 10:34:08;;;;;;;2.57;0.57;;;;;;;8.66;74.58;100188.88;1691877;83;21061;-71
2022/04/16 10:36:39;;;;;;;1.17;0.30;;;;;;;8.71;74.47;100182.53;1692132;83;21081;-72
2022/04/16 10:39:18;;;;;;;0.93;0.20;;;;;;;8.83;73.98;100186.91;1692184;83;21085;-70
2022/04/16 10:42:00;;;;;;;1.23;1.23;;;;;;;8.95;73.41;100189.45;1693551;83;21049;-73
2022/04/16 10:44:29;;;;;;;1.17;0.10;;;;;;;9.05;72.66;100193.17;1695538;82;20991;-70
2022/04/16 10:46:58;;;;;;;0.40;0.20;;;;;;;9.06;72.54;100204.15;1707701;82;21138;-73
2022/04/16 10:49:27;;;;;;;0.70;0.40;;;;;;;9.04;72.75;100208.83;1707827;82;21082;-72
2022/04/16 10:51:55;;;;;;;0.30;0.20;;;;;;;8.96;73.58;100210.21;1708124;82;21073;-72
2022/04/16 10:54:32;;;;;;;0.73;0.10;;;;;;;8.89;73.87;100222.09;1707927;82;21142;-71
2022/04/16 10:57:00;;;;;;;0.50;0.10;;;;;;;8.75;74.99;100226.34;1696009;82;21046;-71
2022/04/16 10:59:42;;;;;;;0.50;0.10;;;;;;;8.67;75.46;100230.41;1708069;82;21697;-72
2022/04/16 11:02:21;;;;;;;0.53;0.20;;;;;;;8.64;75.35;100228.61;1707567;82;21130;-71
2022/04/16 11:05:03;;;;;;;0.63;0.20;;;;;;;8.56;75.30;100230.83;1708028;82;20999;-71
2022/04/16 11:07:35;;;;;;;0.20;0.10;;;;;;;8.39;76.05;100226.10;1708272;82;21597;-70
2022/04/16 11:10:11;;;;;;;0.37;0.10;;;;;;;8.24;76.92;100235.32;1707459;82;21066;-72
2022/04/16 11:12:40;;;;;;;;;;;;;;;8.20;77.21;100236.68;1709860;82;21075;-71
2022/04/16 11:15:12;;;;;;;0.10;0.10;;;;;;;8.16;77.59;100238.04;1706678;82;20137;-71
2022/04/16 11:17:38;;;;;;;1.80;0.40;;;;;;;8.09;77.41;100239.73;1705998;82;21071;-71
2022/04/16 11:20:07;;;;;;;0.33;0.15;;;;;;;8.07;78.59;100240.41;1707609;82;21165;-72
2022/04/16 11:22:34;;;;;;;0.50;0.17;;;;;;;8.08;78.59;100238.06;1703947;82;21074;-72
2022/04/16 11:25:04;;;;;;;;;;;;;;;8.12;78.28;100239.39;1695216;83;21058;-70
2022/04/16 11:36:07;;;;;;;0.65;0.23;;;;;;;8.10;77.33;100242.22;1709181;82;21618;-71
2022/04/16 11:38:39;;;;;;;0.87;0.33;;;;;;;8.12;77.12;100251.34;1709311;82;21050;-71
2022/04/16 11:41:10;;;;;;;0.27;0.20;;;;;;;8.07;76.28;100239.08;1733099;82;21144;-72
2022/04/16 11:43:51;;;;;;;0.40;0.20;;;;;;;8.07;76.00;100256.34;1722532;82;21455;-70
2022/04/16 11:46:18;;;;;;;0.30;0.20;;;;;;;7.98;75.29;100229.81;1710197;82;21038;-70
2022/04/16 11:48:48;;;;;;;0.20;0.13;;;;;;;8.07;75.11;100255.83;1709307;82;21067;-70
2022/04/16 11:51:18;;;;;;;1.70;0.60;;;;;;;8.03;75.36;100254.53;1709962;82;21650;-73
2022/04/16 11:53:52;;;;;;;0.50;0.20;;;;;;;8.11;75.07;100253.66;1709053;82;21123;-71
2022/04/16 11:56:24;;;;;;;0.30;0.30;;;;;;;8.16;73.90;100248.66;1702802;82;21302;-70